Time;durP1;ratioP1;P1;durP2;ratioP2;P2;SDS_P1;SDS_P2;PMS_P1;PMS_P2;Temp;Humidity;BMP_temperature;BMP_pressure;BME280_temperature;BME280_humidity;BME280_pressure;Samples;Min_cycle;Max_cycle;Signal;HPM_P1;HPM_P2
2022/12/25 00:00:30;;;;;;;61.90;26.80;;;;;;;5.58;88.86;99887.17;208519;1295;140540;-66
2022/12/25 00:05:57;;;;;;;48.50;24.60;;;;;;;5.60;89.04;99896.41;209009;1297;223344;-65
2022/12/25 00:11:06;;;;;;;57.10;28.50;;;;;;;5.64;89.41;99894.61;207487;1295;141733;-64
2022/12/25 00:16:19;;;;;;;46.70;23.50;;;;;;;5.62;88.95;99907.85;207503;1293;141299;-64
2022/12/25 00:21:23;;;;;;;48.00;24.70;;;;;;;5.52;88.84;99917.06;208876;1294;143674;-64
2022/12/25 00:26:28;;;;;;;47.70;24.90;;;;;;;5.51;89.01;99923.77;209012;1302;142181;-65
2022/12/25 00:31:33;;;;;;;42.10;26.10;;;;;;;5.49;88.94;99933.98;208209;1289;141481;-66
2022/12/25 00:36:37;;;;;;;48.90;25.40;;;;;;;5.48;89.43;99941.55;207256;1288;139782;-63
2022/12/25 00:47:08;;;;;;;45.60;23.80;;;;;;;5.50;89.17;99949.43;207265;1296;247507;-65
2022/12/25 00:52:12;;;;;;;45.40;27.50;;;;;;;5.48;89.60;99956.15;207912;1288;141568;-64
2022/12/25 00:57:16;;;;;;;42.50;21.90;;;;;;;5.52;89.90;99961.07;208885;1294;139733;-63
2022/12/25 01:02:23;;;;;;;44.80;22.50;;;;;;;5.56;90.03;99973.48;208227;1295;140255;-64
2022/12/25 01:07:29;;;;;;;38.10;20.60;;;;;;;5.59;89.97;99969.02;208346;1294;140187;-65
2022/12/25 01:12:36;;;;;;;38.60;17.40;;;;;;;5.66;89.87;99966.39;208465;1289;141688;-65
2022/12/25 01:17:42;;;;;;;33.70;18.00;;;;;;;5.75;90.21;99959.67;209406;1298;140531;-65
2022/12/25 01:22:49;;;;;;;45.20;17.70;;;;;;;5.79;90.15;99969.63;210020;1297;141082;-64
2022/12/25 01:27:54;;;;;;;35.10;18.20;;;;;;;5.85;89.69;99970.80;210165;1297;141511;-66
2022/12/25 01:32:59;;;;;;;33.40;20.30;;;;;;;5.91;89.96;99970.98;209778;1287;141915;-65
2022/12/25 01:38:05;;;;;;;36.30;18.00;;;;;;;5.97;89.99;99975.04;210205;1295;141193;-66
2022/12/25 01:43:23;;;;;;;34.20;19.10;;;;;;;6.05;89.95;99980.48;209682;1297;141193;-63
2022/12/25 01:48:35;;;;;;;27.90;17.10;;;;;;;6.14;90.13;99984.81;209648;1298;141880;-64
2022/12/25 01:53:42;;;;;;;32.80;18.60;;;;;;;6.21;89.65;99986.45;207640;1289;143062;-62
2022/12/25 01:58:49;;;;;;;32.30;18.20;;;;;;;6.24;90.28;99985.08;209126;1287;141950;-63
2022/12/25 02:03:59;;;;;;;34.60;17.70;;;;;;;6.25;89.73;99981.30;208815;1288;140313;-67
2022/12/25 02:09:05;;;;;;;38.20;17.40;;;;;;;6.28;89.81;99985.95;209213;1288;141683;-63
2022/12/25 02:14:12;;;;;;;37.70;19.60;;;;;;;6.29;90.07;99986.20;208310;1298;142043;-64
2022/12/25 02:20:01;;;;;;;34.20;20.00;;;;;;;6.32;90.19;99994.96;207977;1298;139442;-64
2022/12/25 02:25:07;;;;;;;36.90;18.90;;;;;;;6.37;90.22;100006.83;207578;1296;142044;-64
2022/12/25 02:30:13;;;;;;;42.30;23.10;;;;;;;6.35;89.72;100007.60;208399;1288;140454;-63
2022/12/25 02:35:27;;;;;;;50.20;23.60;;;;;;;6.36;89.95;100003.98;208455;1297;141037;-63
2022/12/25 02:40:48;;;;;;;38.90;19.80;;;;;;;6.35;89.77;100015.51;208483;1288;140722;-63
2022/12/25 03:07:42;;;;;;;40.70;20.60;;;;;;;6.28;89.88;100018.16;209434;1294;141791;-64
2022/12/25 03:12:57;;;;;;;45.80;20.20;;;;;;;6.27;89.66;100027.77;208205;1290;141326;-63
2022/12/25 03:18:05;;;;;;;39.50;22.00;;;;;;;6.25;89.93;100035.91;209702;1297;141145;-63
2022/12/25 03:28:37;;;;;;;27.60;15.70;;;;;;;6.21;89.39;100043.27;210184;1297;140183;-65
2022/12/25 03:35:21;;;;;;;35.50;20.50;;;;;;;6.18;89.30;100045.41;209834;1291;140933;-65
2022/12/25 04:39:26;;;;;;;25.70;15.10;;;;;;;6.12;90.23;100100.66;207407;1288;222825;-65
2022/12/25 04:44:31;;;;;;;27.70;15.60;;;;;;;6.08;89.86;100104.59;207514;1288;140854;-66
2022/12/25 04:49:36;;;;;;;31.10;18.50;;;;;;;6.11;90.16;100105.46;208874;1288;140684;-67
2022/12/25 04:54:40;;;;;;;29.20;14.90;;;;;;;6.13;90.24;100112.95;208228;1289;139663;-67
2022/12/25 04:59:45;;;;;;;28.00;12.70;;;;;;;6.14;90.25;100109.60;209068;1294;140192;-67
2022/12/25 05:04:51;;;;;;;28.70;13.90;;;;;;;6.15;89.76;100106.77;209703;1287;140850;-68
2022/12/25 05:09:57;;;;;;;32.80;15.30;;;;;;;6.21;90.10;100108.66;209549;1297;142383;-66
2022/12/25 05:15:01;;;;;;;16.70;10.40;;;;;;;6.23;89.91;100115.35;210306;1294;140234;-67
2022/12/25 05:20:07;;;;;;;21.60;11.10;;;;;;;6.18;89.35;100121.56;210375;1286;140938;-68
2022/12/25 05:25:12;;;;;;;23.60;11.60;;;;;;;6.24;89.71;100125.55;207788;1281;142390;-67
2022/12/25 05:30:17;;;;;;;19.20;12.30;;;;;;;6.27;89.53;100125.60;208758;1286;140888;-66
2022/12/25 05:35:22;;;;;;;23.60;11.20;;;;;;;6.23;89.83;100130.27;207937;1288;140463;-67
2022/12/25 05:40:27;;;;;;;20.90;11.30;;;;;;;6.26;89.54;100132.73;208454;1294;139978;-67
2022/12/25 05:45:32;;;;;;;20.20;10.10;;;;;;;6.22;89.75;100138.70;208030;1296;141788;-67
2022/12/25 05:50:38;;;;;;;25.90;11.40;;;;;;;6.20;89.86;100143.89;207883;1281;140103;-67
2022/12/25 05:55:42;;;;;;;22.30;11.20;;;;;;;6.17;89.78;100146.73;208249;1288;141224;-67
2022/12/25 06:00:47;;;;;;;21.80;12.70;;;;;;;6.12;89.20;100151.10;208054;1288;141111;-67
2022/12/25 06:05:52;;;;;;;24.50;11.00;;;;;;;6.11;89.70;100150.38;207790;1287;232974;-67
2022/12/25 06:10:57;;;;;;;24.20;9.90;;;;;;;6.13;90.12;100151.52;207745;1294;237127;-66
2022/12/25 06:16:05;;;;;;;27.60;14.10;;;;;;;6.14;89.58;100153.52;207804;1288;142142;-66
2022/12/25 06:21:12;;;;;;;19.40;11.30;;;;;;;6.14;89.91;100159.37;207913;1294;141787;-68
2022/12/25 06:26:18;;;;;;;20.00;11.70;;;;;;;6.16;90.25;100170.25;208255;1287;140476;-67
2022/12/25 06:31:23;;;;;;;24.70;10.10;;;;;;;6.20;90.28;100178.71;207858;1301;141690;-67
2022/12/25 06:36:28;;;;;;;23.10;11.50;;;;;;;6.22;89.40;100186.75;208434;1295;141467;-67
2022/12/25 06:41:32;;;;;;;25.10;11.70;;;;;;;6.18;89.96;100202.80;207493;1294;141333;-67
2022/12/25 06:46:37;;;;;;;21.40;11.60;;;;;;;6.11;89.92;100212.10;207489;1295;308886;-66
2022/12/25 06:51:43;;;;;;;26.00;12.50;;;;;;;6.13;89.36;100217.76;209575;1280;141168;-67
2022/12/25 06:56:47;;;;;;;21.20;11.10;;;;;;;6.15;90.00;100235.98;207398;1291;140765;-66
2022/12/25 07:01:56;;;;;;;38.30;14.00;;;;;;;6.17;90.45;100252.36;209216;1292;140200;-67
2022/12/25 07:07:02;;;;;;;24.60;12.70;;;;;;;6.22;89.84;100259.81;210275;1288;140502;-67
2022/12/25 07:12:22;;;;;;;27.00;13.20;;;;;;;6.28;89.70;100271.98;210386;1302;141521;-68
2022/12/25 07:17:26;;;;;;;28.60;13.60;;;;;;;6.30;89.87;100272.05;209581;1295;140613;-67
2022/12/25 07:22:30;;;;;;;21.40;12.20;;;;;;;6.32;89.82;100279.81;207789;1290;151672;-67
2022/12/25 07:27:34;;;;;;;25.10;12.10;;;;;;;6.39;89.94;100278.30;209211;1294;141526;-67
2022/12/25 07:32:39;;;;;;;24.30;12.60;;;;;;;6.48;90.28;100279.08;209520;1296;142262;-67
2022/12/25 07:37:52;;;;;;;29.60;13.50;;;;;;;6.50;90.06;100288.88;207966;1294;141076;-66
2022/12/25 07:42:58;;;;;;;43.30;19.20;;;;;;;6.54;89.76;100288.24;207414;1281;249560;-67
2022/12/25 07:48:05;;;;;;;18.80;12.30;;;;;;;6.55;89.45;100287.56;207932;1281;141805;-66
2022/12/25 07:53:18;;;;;;;23.60;13.00;;;;;;;6.53;89.64;100283.35;207897;1291;246684;-67
2022/12/25 07:58:23;;;;;;;20.10;12.60;;;;;;;6.57;89.82;100289.13;208152;1288;140495;-68
2022/12/25 08:03:28;;;;;;;24.60;12.30;;;;;;;6.58;89.68;100291.61;207513;1281;139743;-67
2022/12/25 08:08:36;;;;;;;30.80;14.00;;;;;;;6.60;89.87;100294.28;207637;1297;141014;-67
2022/12/25 08:13:44;;;;;;;22.90;14.00;;;;;;;6.56;89.30;100295.23;207528;1295;142074;-67
2022/12/25 08:18:49;;;;;;;27.10;11.90;;;;;;;6.57;89.64;100304.81;208131;1280;141655;-67
2022/12/25 08:23:54;;;;;;;33.30;16.20;;;;;;;6.61;90.08;100316.82;207460;1283;141254;-67
2022/12/25 08:29:00;;;;;;;34.70;14.80;;;;;;;6.65;90.00;100321.65;207524;1288;141928;-67
2022/12/25 08:34:05;;;;;;;25.90;12.10;;;;;;;6.66;89.68;100310.05;207386;1287;139824;-68
2022/12/25 08:39:11;;;;;;;34.00;13.00;;;;;;;6.67;89.79;100311.23;207714;1281;140248;-65
2022/12/25 08:44:15;;;;;;;31.00;13.30;;;;;;;6.76;90.08;100321.75;208556;1288;140755;-67
2022/12/25 08:49:20;;;;;;;16.00;8.60;;;;;;;6.84;90.06;100326.89;207994;1294;154492;-67
2022/12/25 08:54:24;;;;;;;22.90;10.90;;;;;;;6.85;89.80;100333.02;209840;1295;141729;-67
2022/12/25 08:59:28;;;;;;;25.10;11.40;;;;;;;6.92;90.15;100345.98;207505;1287;142472;-67
2022/12/25 09:04:33;;;;;;;29.50;12.80;;;;;;;6.98;89.86;100348.10;207483;1294;221506;-67
2022/12/25 09:09:38;;;;;;;27.10;11.10;;;;;;;6.97;89.70;100354.38;208639;1288;141279;-66
2022/12/25 09:14:41;;;;;;;23.40;11.00;;;;;;;6.89;89.18;100343.63;209316;1300;139785;-67
2022/12/25 09:19:47;;;;;;;22.20;10.30;;;;;;;6.94;89.45;100345.42;207649;1288;248890;-67
2022/12/25 09:24:52;;;;;;;26.50;12.00;;;;;;;7.03;90.06;100348.52;207566;1287;141112;-67
2022/12/25 09:29:56;;;;;;;20.80;12.90;;;;;;;7.17;90.04;100355.31;207512;1285;141294;-66
2022/12/25 09:35:01;;;;;;;22.60;12.20;;;;;;;7.25;90.01;100360.50;207642;1295;141129;-67
2022/12/25 09:40:07;;;;;;;31.90;14.10;;;;;;;7.30;90.25;100355.30;208371;1288;139914;-67
2022/12/25 09:45:24;;;;;;;26.00;13.80;;;;;;;7.32;89.48;100358.86;208261;1289;142836;-69
2022/12/25 09:50:30;;;;;;;19.70;10.70;;;;;;;7.30;89.24;100355.46;207672;1287;141117;-67
2022/12/25 09:55:42;;;;;;;29.90;15.30;;;;;;;7.25;89.50;100354.49;207594;1297;233008;-67
2022/12/25 10:00:57;;;;;;;23.50;12.10;;;;;;;7.26;89.68;100357.36;208767;1297;140108;-67
2022/12/25 10:06:21;;;;;;;20.60;11.70;;;;;;;7.30;89.76;100355.63;207593;1287;140547;-67
2022/12/25 10:11:39;;;;;;;15.70;9.50;;;;;;;7.37;89.66;100358.08;207549;1288;140571;-67
2022/12/25 10:16:45;;;;;;;27.70;16.10;;;;;;;7.35;89.22;100349.48;208350;1287;141621;-67
2022/12/25 10:21:55;;;;;;;24.00;10.80;;;;;;;7.34;89.53;100351.54;208096;1288;140489;-67
2022/12/25 10:27:03;;;;;;;20.90;11.60;;;;;;;7.41;89.50;100356.80;207743;1290;140495;-67
2022/12/25 10:32:09;;;;;;;16.30;9.40;;;;;;;7.39;89.20;100359.15;208554;1297;140079;-66
2022/12/25 10:37:15;;;;;;;19.60;10.70;;;;;;;7.40;88.90;100356.77;208097;1297;236144;-67
2022/12/25 10:42:35;;;;;;;16.70;11.30;;;;;;;7.40;88.93;100350.54;208038;1293;224137;-68
2022/12/25 10:47:43;;;;;;;15.80;10.70;;;;;;;7.46;89.15;100342.08;208833;1295;141710;-68
2022/12/25 10:53:08;;;;;;;16.20;10.10;;;;;;;7.49;89.07;100347.84;207476;1289;140070;-68
2022/12/25 10:58:19;;;;;;;17.80;10.10;;;;;;;7.43;88.79;100358.02;210244;1286;142230;-67
2022/12/25 11:03:29;;;;;;;15.30;10.60;;;;;;;7.36;88.55;100357.51;210334;1294;140957;-67
2022/12/25 11:08:34;;;;;;;14.70;11.10;;;;;;;7.33;88.35;100341.55;210406;1295;140600;-67
2022/12/25 11:13:49;;;;;;;20.10;9.60;;;;;;;7.39;88.79;100337.73;209496;1291;142689;-67
2022/12/25 11:18:56;;;;;;;14.60;9.30;;;;;;;7.47;88.41;100344.73;210053;1301;142659;-69
2022/12/25 11:24:04;;;;;;;;;;;;;;;7.54;88.17;100336.52;209273;1291;142508;-67
2022/12/25 11:29:37;;;;;;;21.80;10.90;;;;;;;7.56;88.44;100328.89;209758;1294;126349;-69
2022/12/25 11:34:46;;;;;;;16.90;11.90;;;;;;;7.64;88.28;100326.34;207397;1294;142790;-68
2022/12/25 11:39:51;;;;;;;27.80;12.70;;;;;;;7.71;88.38;100325.48;208144;1288;140497;-66
2022/12/25 11:45:10;;;;;;;15.70;10.40;;;;;;;7.76;88.50;100319.66;207439;1288;142696;-67
2022/12/25 11:50:35;;;;;;;21.00;8.90;;;;;;;7.80;88.15;100313.38;208444;1295;141587;-67
2022/12/25 11:55:45;;;;;;;16.90;9.60;;;;;;;7.77;87.70;100309.33;207874;1295;140743;-67
2022/12/25 12:00:52;;;;;;;14.70;8.30;;;;;;;7.68;87.75;100320.49;207524;1294;250378;-67
2022/12/25 12:06:03;;;;;;;19.50;9.50;;;;;;;7.67;87.66;100325.75;208152;1293;238220;-67
2022/12/25 12:11:20;;;;;;;16.20;8.60;;;;;;;7.69;87.56;100335.91;207757;1290;140152;-67
2022/12/25 12:16:25;;;;;;;17.40;9.20;;;;;;;7.69;87.63;100340.58;207821;1294;140146;-68
2022/12/25 12:21:30;;;;;;;16.90;10.30;;;;;;;7.67;87.63;100345.17;207630;1293;139990;-67
2022/12/25 12:26:39;;;;;;;18.90;10.00;;;;;;;7.67;87.35;100341.39;208624;1301;139867;-67
2022/12/25 12:31:48;;;;;;;22.10;10.30;;;;;;;7.72;87.31;100338.98;207396;1294;141383;-67
2022/12/25 12:37:03;;;;;;;16.20;9.00;;;;;;;7.73;87.01;100331.05;207326;1294;140802;-68
2022/12/25 12:42:18;;;;;;;18.10;11.40;;;;;;;7.61;87.14;100323.79;209355;1300;140826;-67
2022/12/25 12:47:48;;;;;;;15.50;8.60;;;;;;;7.59;87.38;100321.23;209939;1294;140045;-68
2022/12/25 12:52:55;;;;;;;16.40;8.20;;;;;;;7.69;87.51;100324.70;210130;1300;140976;-67
2022/12/25 12:58:05;;;;;;;15.60;8.60;;;;;;;7.68;87.00;100327.75;210166;1300;141428;-66
2022/12/25 13:03:47;;;;;;;11.90;7.80;;;;;;;7.67;87.28;100337.42;210462;1294;141246;-68
2022/12/25 13:09:24;;;;;;;16.70;8.30;;;;;;;7.66;87.20;100336.33;210444;1300;246797;-68
2022/12/25 13:14:29;;;;;;;10.10;7.60;;;;;;;7.64;86.79;100334.04;208830;1300;141005;-67
2022/12/25 13:19:35;;;;;;;11.80;7.60;;;;;;;7.59;86.65;100332.73;209036;1300;141312;-67
2022/12/25 13:24:41;;;;;;;7.90;5.40;;;;;;;7.53;86.63;100328.67;207829;1294;141251;-67
2022/12/25 13:29:46;;;;;;;21.50;8.80;;;;;;;7.40;86.84;100319.69;207086;1290;143196;-67
2022/12/25 13:34:53;;;;;;;17.90;8.30;;;;;;;7.38;87.06;100332.21;207083;1287;140831;-67
2022/12/25 13:40:00;;;;;;;14.20;8.80;;;;;;;7.41;87.45;100340.42;208368;1293;142182;-72
2022/12/25 13:45:17;;;;;;;20.10;9.20;;;;;;;7.41;87.40;100338.63;208720;1288;141242;-67
2022/12/25 13:50:32;;;;;;;26.40;7.90;;;;;;;7.34;87.24;100343.23;207638;1287;140505;-65
2022/12/25 13:55:38;;;;;;;22.60;10.80;;;;;;;7.34;87.50;100337.91;207614;1295;142784;-67
2022/12/25 14:00:48;;;;;;;60.40;32.20;;;;;;;7.35;87.51;100330.41;208226;1293;141717;-65
2022/12/25 14:05:59;;;;;;;41.80;19.80;;;;;;;7.26;87.20;100324.11;209867;1296;141865;-65
2022/12/25 14:11:06;;;;;;;27.30;12.80;;;;;;;7.08;86.64;100314.56;207358;1287;140844;-62
2022/12/25 14:16:14;;;;;;;31.10;16.50;;;;;;;6.98;87.07;100312.25;208003;1286;141141;-64
2022/12/25 14:21:40;;;;;;;26.60;15.50;;;;;;;6.99;87.68;100317.84;207922;1293;222971;-63
2022/12/25 14:27:05;;;;;;;22.10;12.20;;;;;;;7.01;87.61;100327.68;208373;1289;140980;-65
2022/12/25 14:32:30;;;;;;;16.80;12.20;;;;;;;7.01;87.94;100340.05;208635;1293;141082;-68
2022/12/25 14:37:49;;;;;;;19.50;12.20;;;;;;;6.98;87.70;100348.27;208386;1296;141629;-67
2022/12/25 14:43:21;;;;;;;22.30;12.80;;;;;;;6.81;87.19;100348.48;208575;1295;140939;-66
2022/12/25 14:48:31;;;;;;;21.30;13.00;;;;;;;6.75;87.76;100343.98;208540;1297;244682;-67
2022/12/25 14:53:53;;;;;;;20.40;12.10;;;;;;;6.74;87.93;100339.71;210198;1300;141765;-68
2022/12/25 14:59:01;;;;;;;22.30;12.60;;;;;;;6.72;87.89;100323.45;210102;1296;141964;-66
2022/12/25 15:04:19;;;;;;;23.10;12.30;;;;;;;6.64;87.79;100317.46;210162;1293;141197;-67
2022/12/25 15:09:30;;;;;;;25.70;12.20;;;;;;;6.56;87.55;100336.18;209084;1295;140859;-67
2022/12/25 15:14:37;;;;;;;31.30;14.40;;;;;;;6.55;87.76;100345.47;210134;1295;140534;-66
2022/12/25 15:19:47;;;;;;;23.70;11.70;;;;;;;6.55;87.90;100354.88;208803;1294;140605;-65
2022/12/25 15:25:00;;;;;;;20.20;12.90;;;;;;;6.56;88.22;100360.91;209353;1296;236557;-65
2022/12/25 15:30:24;;;;;;;20.30;12.60;;;;;;;6.64;88.45;100364.85;209041;1296;140872;-67
2022/12/25 15:35:37;;;;;;;27.90;14.10;;;;;;;6.69;88.17;100370.44;207221;1287;221889;-64
2022/12/25 15:41:03;;;;;;;23.80;14.60;;;;;;;6.60;87.87;100367.76;209430;1294;142188;-66
2022/12/25 15:46:19;;;;;;;25.90;12.30;;;;;;;6.52;87.84;100361.53;207707;1296;140414;-67
2022/12/25 15:51:44;;;;;;;57.80;26.00;;;;;;;6.35;87.87;100349.50;207805;1300;247871;-66
2022/12/25 15:57:02;;;;;;;29.90;16.00;;;;;;;6.28;88.01;100347.27;208144;1300;141963;-64
2022/12/25 16:02:19;;;;;;;31.50;16.90;;;;;;;6.19;87.77;100348.00;207224;1290;235807;-65
2022/12/25 16:07:35;;;;;;;28.50;16.50;;;;;;;6.19;88.39;100351.83;208770;1299;143483;-67
2022/12/25 16:12:53;;;;;;;25.30;13.90;;;;;;;6.18;88.01;100347.71;207788;1290;140410;-65
2022/12/25 16:18:10;;;;;;;26.80;15.60;;;;;;;6.09;87.90;100330.14;208346;1293;223400;-65
2022/12/25 16:23:31;;;;;;;43.90;20.70;;;;;;;6.00;88.21;100315.04;207221;1293;225113;-63
2022/12/25 16:28:45;;;;;;;40.90;18.50;;;;;;;5.92;88.47;100303.92;208479;1293;141112;-64
2022/12/25 16:34:01;;;;;;;37.80;19.30;;;;;;;5.85;88.40;100295.81;207890;1289;141444;-65
2022/12/25 16:39:19;;;;;;;36.50;16.20;;;;;;;5.79;88.47;100303.34;208944;1294;142057;-65
2022/12/25 16:44:36;;;;;;;36.70;17.40;;;;;;;5.72;88.80;100297.66;210167;1293;162728;-67
2022/12/25 16:49:54;;;;;;;37.00;19.90;;;;;;;5.71;88.52;100286.98;210189;1294;140957;-66
2022/12/25 16:55:14;;;;;;;39.80;18.50;;;;;;;5.61;88.38;100274.64;209212;1296;141140;-65
2022/12/25 17:00:27;;;;;;;36.10;19.30;;;;;;;5.53;88.73;100296.98;210196;1302;140938;-67
2022/12/25 17:05:37;;;;;;;28.40;17.10;;;;;;;5.55;88.87;100305.58;207929;1290;141111;-67
2022/12/25 17:10:53;;;;;;;33.50;18.00;;;;;;;5.56;88.19;100307.38;207444;1296;140501;-63
2022/12/25 17:16:13;;;;;;;34.40;17.30;;;;;;;5.53;88.49;100316.54;208270;1294;140746;-63
2022/12/25 17:21:40;;;;;;;42.40;23.50;;;;;;;5.49;88.59;100297.02;207221;1289;226102;-66
2022/12/25 17:27:10;;;;;;;47.40;22.30;;;;;;;5.46;88.64;100298.39;208004;1288;247954;-66
2022/12/25 17:32:28;;;;;;;40.70;23.50;;;;;;;5.44;88.88;100285.76;207424;1290;140812;-66
2022/12/25 17:37:59;;;;;;;62.00;27.60;;;;;;;5.43;89.11;100305.07;207894;1294;237768;-66
2022/12/25 17:43:07;;;;;;;34.80;19.50;;;;;;;5.41;88.80;100301.46;207742;1288;140411;-67
2022/12/25 17:48:26;;;;;;;40.00;22.60;;;;;;;5.34;88.97;100291.70;207235;1288;139884;-66
2022/12/25 17:53:41;;;;;;;39.30;18.00;;;;;;;5.31;89.18;100280.94;207770;1288;140441;-67
2022/12/25 17:58:52;;;;;;;27.90;17.10;;;;;;;5.34;89.28;100276.90;207294;1287;140721;-66
2022/12/25 18:04:03;;;;;;;38.00;18.00;;;;;;;5.37;88.93;100283.94;209169;1295;142089;-66
2022/12/25 18:09:11;;;;;;;33.80;15.40;;;;;;;5.38;89.18;100276.85;207307;1287;140197;-66
2022/12/25 18:14:16;;;;;;;34.40;17.60;;;;;;;5.33;88.82;100270.74;208081;1288;140613;-67
2022/12/25 18:19:21;;;;;;;28.10;17.40;;;;;;;5.23;88.63;100257.14;208866;1294;140212;-65
2022/12/25 18:24:27;;;;;;;33.30;18.80;;;;;;;5.19;88.77;100259.79;209517;1289;140659;-66
2022/12/25 18:29:32;;;;;;;33.50;16.60;;;;;;;5.16;88.77;100242.80;208260;1295;250076;-67
2022/12/25 18:34:36;;;;;;;36.90;20.20;;;;;;;5.11;89.08;100237.87;209024;1298;142705;-69
2022/12/25 18:39:41;;;;;;;44.60;24.90;;;;;;;5.09;89.14;100237.80;209990;1291;141605;-65
2022/12/25 18:44:48;;;;;;;48.10;21.30;;;;;;;5.04;89.20;100227.59;210018;1295;140866;-66
2022/12/25 18:49:54;;;;;;;41.30;23.40;;;;;;;5.05;88.89;100249.63;209120;1296;1313216;-66
2022/12/25 18:54:58;;;;;;;34.90;19.60;;;;;;;5.06;89.36;100220.58;209820;1295;140575;-67
2022/12/25 19:00:07;;;;;;;34.50;20.70;;;;;;;5.06;89.51;100215.70;209790;1298;141169;-65
2022/12/25 19:05:16;;;;;;;31.80;21.60;;;;;;;5.06;89.43;100208.83;208100;1281;140325;-63
2022/12/25 19:10:30;;;;;;;41.70;21.80;;;;;;;5.02;89.53;100203.13;208667;1294;234477;-67
2022/12/25 19:15:41;;;;;;;;;;;;;;;4.99;89.29;100187.36;208237;1295;141859;-68
2022/12/25 19:20:49;;;;;;;34.70;18.40;;;;;;;4.92;89.51;100193.62;209050;1297;127143;-67
2022/12/25 19:25:58;;;;;;;40.30;22.50;;;;;;;4.92;89.72;100187.85;208648;1288;141627;-67
2022/12/25 19:31:06;;;;;;;45.40;28.10;;;;;;;4.92;90.06;100160.50;207509;1295;141092;-67
2022/12/25 19:36:14;;;;;;;39.40;25.10;;;;;;;4.90;89.87;100164.17;207112;1297;140812;-64
2022/12/25 19:41:21;;;;;;;38.60;22.80;;;;;;;4.92;90.34;100162.12;207099;1293;141143;-67
2022/12/25 19:46:37;;;;;;;36.90;20.60;;;;;;;4.97;90.11;100160.66;208372;1293;140032;-70
2022/12/25 19:51:44;;;;;;;34.80;21.10;;;;;;;4.95;90.18;100163.38;207766;1294;141171;-69
2022/12/25 19:56:49;;;;;;;32.80;19.80;;;;;;;4.94;90.18;100148.89;207308;1295;140305;-68
2022/12/25 20:01:54;;;;;;;40.50;21.90;;;;;;;4.88;90.04;100133.08;210126;1296;141999;-67
2022/12/25 20:07:02;;;;;;;30.50;20.90;;;;;;;4.83;90.36;100138.41;210189;1296;140927;-68
2022/12/25 20:12:09;;;;;;;33.20;18.70;;;;;;;4.87;90.12;100148.52;210013;1291;144778;-63
2022/12/25 20:17:13;;;;;;;37.40;19.90;;;;;;;4.94;90.09;100151.86;210024;1294;142250;-64
2022/12/25 20:26:40;;;;;;;36.00;21.00;;;;;;;4.96;89.98;100133.77;209315;1334;657343;-65
2022/12/25 20:31:46;;;;;;;35.30;20.30;;;;;;;4.93;89.99;100140.02;208288;1307;141212;-63
2022/12/25 20:36:50;;;;;;;31.70;18.60;;;;;;;4.93;89.68;100123.67;208173;1310;217622;-65
2022/12/25 20:41:54;;;;;;;36.40;22.10;;;;;;;4.90;89.94;100105.53;208138;1299;140471;-65
2022/12/25 20:46:59;;;;;;;44.30;21.70;;;;;;;4.92;89.68;100095.55;208707;1306;140158;-65
2022/12/25 20:52:04;;;;;;;35.80;20.40;;;;;;;4.92;89.95;100092.38;207764;1311;140043;-66
2022/12/25 20:57:09;;;;;;;26.50;16.90;;;;;;;4.93;90.10;100093.73;208678;1301;140402;-64
2022/12/25 21:02:13;;;;;;;36.70;21.00;;;;;;;4.87;89.56;100089.17;207080;1301;141349;-63
2022/12/25 21:07:38;;;;;;;42.60;19.70;;;;;;;4.81;89.75;100078.80;208138;1301;244001;-66
2022/12/25 21:12:44;;;;;;;36.40;20.70;;;;;;;4.81;89.98;100062.83;208020;1298;139971;-67
2022/12/25 21:17:48;;;;;;;26.90;15.30;;;;;;;4.80;90.01;100053.92;207178;1301;140230;-65
2022/12/25 21:22:52;;;;;;;31.70;18.70;;;;;;;4.79;89.92;100047.42;206995;1300;141215;-64
2022/12/25 21:27:56;;;;;;;34.00;21.00;;;;;;;4.72;90.12;100047.70;206965;1301;152297;-62
2022/12/25 21:38:24;;;;;;;30.20;17.00;;;;;;;4.70;90.49;100028.33;207501;1298;139601;-63
2022/12/25 21:43:29;;;;;;;28.50;18.50;;;;;;;4.72;90.27;100019.36;206877;1294;158885;-63
2022/12/25 21:48:36;;;;;;;41.30;19.00;;;;;;;4.69;90.58;100003.69;207928;1293;139872;-69
2022/12/25 21:53:40;;;;;;;36.90;17.20;;;;;;;4.68;90.36;99995.64;207207;1287;141187;-65
2022/12/25 21:58:45;;;;;;;29.30;16.60;;;;;;;4.66;90.54;99984.73;206702;1291;139909;-67
2022/12/25 22:03:51;;;;;;;34.20;18.90;;;;;;;4.67;90.37;99982.30;206531;1294;139850;-67
2022/12/25 22:08:56;;;;;;;32.70;16.80;;;;;;;4.67;90.56;99970.85;207568;1300;139835;-67
2022/12/25 22:19:44;;;;;;;31.30;16.00;;;;;;;4.73;90.52;99950.02;206683;1294;140872;-66
2022/12/25 22:24:50;;;;;;;31.60;18.70;;;;;;;4.78;90.70;99937.63;206817;1300;143022;-66
2022/12/25 22:29:55;;;;;;;31.60;16.90;;;;;;;4.77;90.51;99930.71;208741;1300;139425;-66
2022/12/25 22:34:59;;;;;;;31.40;18.20;;;;;;;4.79;90.57;99927.07;209678;1300;140031;-67
2022/12/25 22:40:04;;;;;;;22.70;13.90;;;;;;;4.84;90.26;99923.33;208036;1298;139463;-67
2022/12/25 22:45:11;;;;;;;22.80;15.70;;;;;;;4.93;90.45;99923.24;206814;1301;139969;-67
2022/12/25 22:50:19;;;;;;;30.10;15.40;;;;;;;4.98;90.63;99928.08;208144;1293;141011;-66
2022/12/25 22:55:25;;;;;;;28.50;16.30;;;;;;;5.08;90.38;99938.88;207729;1297;139856;-67
2022/12/25 23:00:30;;;;;;;23.00;15.50;;;;;;;5.13;90.31;99929.84;207198;1303;140085;-67
2022/12/25 23:05:35;;;;;;;21.50;14.00;;;;;;;5.16;90.36;99926.46;207706;1301;139405;-68
2022/12/25 23:10:40;;;;;;;24.70;15.20;;;;;;;5.17;90.54;99915.61;207284;1290;140399;-67
2022/12/25 23:15:46;;;;;;;28.60;16.30;;;;;;;5.20;90.47;99900.98;207668;1291;139764;-67
2022/12/25 23:26:19;;;;;;;22.10;14.80;;;;;;;5.17;90.24;99886.00;207679;1292;139714;-68
2022/12/25 23:31:33;;;;;;;27.70;15.50;;;;;;;5.14;90.06;99888.88;209056;1287;151971;-68
2022/12/25 23:36:39;;;;;;;27.40;16.50;;;;;;;5.15;90.30;99894.05;207731;1286;218670;-67
2022/12/25 23:41:44;;;;;;;29.00;15.00;;;;;;;5.15;90.59;99905.07;207606;1295;141448;-68
2022/12/25 23:46:49;;;;;;;25.30;14.80;;;;;;;5.19;90.55;99902.16;207738;1285;139423;-67
2022/12/25 23:51:57;;;;;;;28.10;15.20;;;;;;;5.20;90.61;99899.71;207699;1294;139679;-68
2022/12/25 23:57:02;;;;;;;25.50;13.70;;;;;;;5.16;90.53;99897.42;207633;1286;139497;-66
